sensor_id;sensor_type;location;lat;lon;timestamp;pressure;altitude;pressure_sealevel;temperature
16956;BMP180;8594;52.052;8.354;2023-03-03T00:00:10;101378.00;;;4.30
16956;BMP180;8594;52.052;8.354;2023-03-03T00:02:37;101381.00;;;4.10
16956;BMP180;8594;52.052;8.354;2023-03-03T00:05:05;101366.00;;;3.80
16956;BMP180;8594;52.052;8.354;2023-03-03T00:07:32;101356.00;;;3.90
16956;BMP180;8594;52.052;8.354;2023-03-03T00:09:59;101366.00;;;4.10
16956;BMP180;8594;52.052;8.354;2023-03-03T00:12:29;101350.00;;;3.80
16956;BMP180;8594;52.052;8.354;2023-03-03T00:14:56;101348.00;;;4.30
16956;BMP180;8594;52.052;8.354;2023-03-03T00:17:27;101357.00;;;4.40
16956;BMP180;8594;52.052;8.354;2023-03-03T00:19:55;101351.00;;;4.40
16956;BMP180;8594;52.052;8.354;2023-03-03T00:22:28;101362.00;;;4.70
16956;BMP180;8594;52.052;8.354;2023-03-03T00:24:59;101370.00;;;4.80
16956;BMP180;8594;52.052;8.354;2023-03-03T00:27:30;101369.00;;;4.70
16956;BMP180;8594;52.052;8.354;2023-03-03T00:30:01;101374.00;;;4.40
16956;BMP180;8594;52.052;8.354;2023-03-03T00:32:37;101370.00;;;4.50
16956;BMP180;8594;52.052;8.354;2023-03-03T00:35:23;101367.00;;;4.40
16956;BMP180;8594;52.052;8.354;2023-03-03T00:37:54;101370.00;;;4.60
16956;BMP180;8594;52.052;8.354;2023-03-03T00:40:24;101374.00;;;4.60
16956;BMP180;8594;52.052;8.354;2023-03-03T00:42:53;101373.00;;;4.30
16956;BMP180;8594;52.052;8.354;2023-03-03T00:45:31;101369.00;;;4.40
16956;BMP180;8594;52.052;8.354;2023-03-03T00:48:20;101356.00;;;4.50
16956;BMP180;8594;52.052;8.354;2023-03-03T00:50:47;101361.00;;;4.70
16956;BMP180;8594;52.052;8.354;2023-03-03T00:53:15;101355.00;;;4.90
16956;BMP180;8594;52.052;8.354;2023-03-03T00:55:43;101358.00;;;5.20
16956;BMP180;8594;52.052;8.354;2023-03-03T00:58:11;101362.00;;;4.80
16956;BMP180;8594;52.052;8.354;2023-03-03T01:00:40;101366.00;;;4.90
16956;BMP180;8594;52.052;8.354;2023-03-03T01:03:16;101378.00;;;5.10
16956;BMP180;8594;52.052;8.354;2023-03-03T01:05:44;101366.00;;;4.90
16956;BMP180;8594;52.052;8.354;2023-03-03T01:08:11;101362.00;;;5.10
16956;BMP180;8594;52.052;8.354;2023-03-03T01:10:41;101361.00;;;4.30
16956;BMP180;8594;52.052;8.354;2023-03-03T01:13:10;101364.00;;;4.30
16956;BMP180;8594;52.052;8.354;2023-03-03T01:15:38;101365.00;;;4.30
16956;BMP180;8594;52.052;8.354;2023-03-03T01:18:07;101363.00;;;4.70
16956;BMP180;8594;52.052;8.354;2023-03-03T01:20:34;101357.00;;;4.00
16956;BMP180;8594;52.052;8.354;2023-03-03T01:23:01;101365.00;;;4.40
16956;BMP180;8594;52.052;8.354;2023-03-03T01:25:29;101360.00;;;4.70
16956;BMP180;8594;52.052;8.354;2023-03-03T01:27:56;101363.00;;;4.80
16956;BMP180;8594;52.052;8.354;2023-03-03T01:30:24;101365.00;;;4.70
16956;BMP180;8594;52.052;8.354;2023-03-03T01:32:51;101363.00;;;4.50
16956;BMP180;8594;52.052;8.354;2023-03-03T01:35:20;101358.00;;;4.50
16956;BMP180;8594;52.052;8.354;2023-03-03T01:37:47;101355.00;;;4.90
16956;BMP180;8594;52.052;8.354;2023-03-03T01:40:18;101349.00;;;4.10
16956;BMP180;8594;52.052;8.354;2023-03-03T01:42:44;101338.00;;;4.30
16956;BMP180;8594;52.052;8.354;2023-03-03T01:45:19;101349.00;;;3.90
16956;BMP180;8594;52.052;8.354;2023-03-03T01:47:53;101360.00;;;4.20
16956;BMP180;8594;52.052;8.354;2023-03-03T01:50:36;101371.00;;;4.50
16956;BMP180;8594;52.052;8.354;2023-03-03T01:53:09;101368.00;;;4.30
16956;BMP180;8594;52.052;8.354;2023-03-03T01:55:40;101356.00;;;4.50
16956;BMP180;8594;52.052;8.354;2023-03-03T01:58:13;101360.00;;;4.90
16956;BMP180;8594;52.052;8.354;2023-03-03T02:00:47;101349.00;;;4.80
16956;BMP180;8594;52.052;8.354;2023-03-03T02:03:17;101333.00;;;4.70
16956;BMP180;8594;52.052;8.354;2023-03-03T02:05:47;101348.00;;;4.80
16956;BMP180;8594;52.052;8.354;2023-03-03T02:08:18;101358.00;;;4.90
16956;BMP180;8594;52.052;8.354;2023-03-03T02:10:48;101361.00;;;4.90
16956;BMP180;8594;52.052;8.354;2023-03-03T02:13:16;101372.00;;;4.90
16956;BMP180;8594;52.052;8.354;2023-03-03T02:15:43;101360.00;;;4.50
16956;BMP180;8594;52.052;8.354;2023-03-03T02:18:12;101350.00;;;4.90
16956;BMP180;8594;52.052;8.354;2023-03-03T02:20:54;101355.00;;;5.00
16956;BMP180;8594;52.052;8.354;2023-03-03T02:23:30;101350.00;;;4.40
16956;BMP180;8594;52.052;8.354;2023-03-03T02:26:06;101348.00;;;4.90
16956;BMP180;8594;52.052;8.354;2023-03-03T02:28:36;101359.00;;;4.90
16956;BMP180;8594;52.052;8.354;2023-03-03T02:31:07;101355.00;;;4.70
16956;BMP180;8594;52.052;8.354;2023-03-03T02:33:35;101362.00;;;4.70
16956;BMP180;8594;52.052;8.354;2023-03-03T02:36:02;101365.00;;;4.70
16956;BMP180;8594;52.052;8.354;2023-03-03T02:38:36;101367.00;;;4.40
16956;BMP180;8594;52.052;8.354;2023-03-03T02:41:13;101362.00;;;4.40
16956;BMP180;8594;52.052;8.354;2023-03-03T02:43:50;101363.00;;;4.60
16956;BMP180;8594;52.052;8.354;2023-03-03T02:46:18;101369.00;;;4.90
16956;BMP180;8594;52.052;8.354;2023-03-03T02:48:45;101372.00;;;4.90
16956;BMP180;8594;52.052;8.354;2023-03-03T02:51:12;101379.00;;;4.70
16956;BMP180;8594;52.052;8.354;2023-03-03T02:53:40;101374.00;;;4.60
16956;BMP180;8594;52.052;8.354;2023-03-03T02:56:08;101379.00;;;5.10
16956;BMP180;8594;52.052;8.354;2023-03-03T02:58:36;101380.00;;;4.90
16956;BMP180;8594;52.052;8.354;2023-03-03T03:01:03;101366.00;;;4.60
16956;BMP180;8594;52.052;8.354;2023-03-03T03:03:30;101362.00;;;4.80
16956;BMP180;8594;52.052;8.354;2023-03-03T03:05:57;101374.00;;;5.10
16956;BMP180;8594;52.052;8.354;2023-03-03T03:08:24;101363.00;;;4.40
16956;BMP180;8594;52.052;8.354;2023-03-03T03:10:51;101362.00;;;4.70
16956;BMP180;8594;52.052;8.354;2023-03-03T03:13:19;101365.00;;;5.00
16956;BMP180;8594;52.052;8.354;2023-03-03T03:15:46;101369.00;;;5.00
16956;BMP180;8594;52.052;8.354;2023-03-03T03:18:14;101367.00;;;4.80
16956;BMP180;8594;52.052;8.354;2023-03-03T03:20:41;101358.00;;;4.80
16956;BMP180;8594;52.052;8.354;2023-03-03T03:23:09;101370.00;;;4.90
16956;BMP180;8594;52.052;8.354;2023-03-03T03:25:37;101355.00;;;4.60
16956;BMP180;8594;52.052;8.354;2023-03-03T03:28:10;101352.00;;;4.40
16956;BMP180;8594;52.052;8.354;2023-03-03T03:30:39;101356.00;;;4.60
16956;BMP180;8594;52.052;8.354;2023-03-03T03:33:06;101359.00;;;4.90
16956;BMP180;8594;52.052;8.354;2023-03-03T03:35:35;101356.00;;;4.70
16956;BMP180;8594;52.052;8.354;2023-03-03T03:38:03;101359.00;;;5.00
16956;BMP180;8594;52.052;8.354;2023-03-03T03:40:29;101359.00;;;4.90
16956;BMP180;8594;52.052;8.354;2023-03-03T03:42:56;101369.00;;;4.80
16956;BMP180;8594;52.052;8.354;2023-03-03T03:45:23;101371.00;;;4.80
16956;BMP180;8594;52.052;8.354;2023-03-03T03:47:51;101374.00;;;5.00
16956;BMP180;8594;52.052;8.354;2023-03-03T03:50:18;101363.00;;;4.60
16956;BMP180;8594;52.052;8.354;2023-03-03T03:52:45;101371.00;;;4.70
16956;BMP180;8594;52.052;8.354;2023-03-03T03:55:12;101365.00;;;4.60
16956;BMP180;8594;52.052;8.354;2023-03-03T03:57:39;101363.00;;;5.00
16956;BMP180;8594;52.052;8.354;2023-03-03T04:00:08;101364.00;;;4.50
16956;BMP180;8594;52.052;8.354;2023-03-03T04:02:36;101369.00;;;4.70
16956;BMP180;8594;52.052;8.354;2023-03-03T04:05:06;101374.00;;;4.30
16956;BMP180;8594;52.052;8.354;2023-03-03T04:07:33;101373.00;;;4.30
16956;BMP180;8594;52.052;8.354;2023-03-03T04:10:00;101367.00;;;4.70
16956;BMP180;8594;52.052;8.354;2023-03-03T04:12:26;101373.00;;;4.30
16956;BMP180;8594;52.052;8.354;2023-03-03T04:14:53;101366.00;;;4.30
16956;BMP180;8594;52.052;8.354;2023-03-03T04:17:22;101365.00;;;4.80
16956;BMP180;8594;52.052;8.354;2023-03-03T04:19:52;101374.00;;;5.00
16956;BMP180;8594;52.052;8.354;2023-03-03T04:22:20;101359.00;;;5.30
16956;BMP180;8594;52.052;8.354;2023-03-03T04:24:47;101367.00;;;4.30
16956;BMP180;8594;52.052;8.354;2023-03-03T04:27:14;101357.00;;;4.40
16956;BMP180;8594;52.052;8.354;2023-03-03T04:29:41;101362.00;;;4.20
16956;BMP180;8594;52.052;8.354;2023-03-03T04:32:08;101355.00;;;4.10
16956;BMP180;8594;52.052;8.354;2023-03-03T04:34:35;101356.00;;;4.40
16956;BMP180;8594;52.052;8.354;2023-03-03T04:37:02;101360.00;;;4.30
16956;BMP180;8594;52.052;8.354;2023-03-03T04:39:30;101355.00;;;4.90
16956;BMP180;8594;52.052;8.354;2023-03-03T04:41:57;101359.00;;;4.90
16956;BMP180;8594;52.052;8.354;2023-03-03T04:44:24;101355.00;;;5.10
16956;BMP180;8594;52.052;8.354;2023-03-03T04:46:51;101363.00;;;5.10
16956;BMP180;8594;52.052;8.354;2023-03-03T04:49:18;101364.00;;;4.60
16956;BMP180;8594;52.052;8.354;2023-03-03T04:51:45;101371.00;;;4.60
16956;BMP180;8594;52.052;8.354;2023-03-03T04:54:11;101365.00;;;4.80
16956;BMP180;8594;52.052;8.354;2023-03-03T04:56:40;101363.00;;;4.10
16956;BMP180;8594;52.052;8.354;2023-03-03T04:59:06;101381.00;;;4.40
16956;BMP180;8594;52.052;8.354;2023-03-03T05:01:33;101384.00;;;4.20
16956;BMP180;8594;52.052;8.354;2023-03-03T05:04:00;101379.00;;;4.50
16956;BMP180;8594;52.052;8.354;2023-03-03T05:06:27;101382.00;;;4.50
16956;BMP180;8594;52.052;8.354;2023-03-03T05:08:54;101387.00;;;3.90
16956;BMP180;8594;52.052;8.354;2023-03-03T05:11:21;101397.00;;;4.20
16956;BMP180;8594;52.052;8.354;2023-03-03T05:13:49;101403.00;;;4.40
16956;BMP180;8594;52.052;8.354;2023-03-03T05:16:16;101395.00;;;4.30
16956;BMP180;8594;52.052;8.354;2023-03-03T05:18:42;101399.00;;;4.20
16956;BMP180;8594;52.052;8.354;2023-03-03T05:21:10;101390.00;;;4.20
16956;BMP180;8594;52.052;8.354;2023-03-03T05:23:37;101404.00;;;4.40
16956;BMP180;8594;52.052;8.354;2023-03-03T05:26:04;101397.00;;;4.20
16956;BMP180;8594;52.052;8.354;2023-03-03T05:28:32;101397.00;;;4.60
16956;BMP180;8594;52.052;8.354;2023-03-03T05:31:00;101396.00;;;4.60
16956;BMP180;8594;52.052;8.354;2023-03-03T05:33:27;101397.00;;;4.70
16956;BMP180;8594;52.052;8.354;2023-03-03T05:35:55;101400.00;;;4.30
16956;BMP180;8594;52.052;8.354;2023-03-03T05:38:22;101400.00;;;3.80
16956;BMP180;8594;52.052;8.354;2023-03-03T05:40:49;101402.00;;;4.30
16956;BMP180;8594;52.052;8.354;2023-03-03T05:43:16;101403.00;;;4.30
16956;BMP180;8594;52.052;8.354;2023-03-03T05:45:44;101415.00;;;4.00
16956;BMP180;8594;52.052;8.354;2023-03-03T05:48:12;101400.00;;;3.80
16956;BMP180;8594;52.052;8.354;2023-03-03T05:50:39;101398.00;;;3.90
16956;BMP180;8594;52.052;8.354;2023-03-03T05:53:06;101404.00;;;4.00
16956;BMP180;8594;52.052;8.354;2023-03-03T05:55:33;101404.00;;;3.60
16956;BMP180;8594;52.052;8.354;2023-03-03T05:58:00;101400.00;;;3.90
16956;BMP180;8594;52.052;8.354;2023-03-03T06:00:27;101395.00;;;4.20
16956;BMP180;8594;52.052;8.354;2023-03-03T06:02:54;101394.00;;;4.10
16956;BMP180;8594;52.052;8.354;2023-03-03T06:05:22;101387.00;;;4.40
16956;BMP180;8594;52.052;8.354;2023-03-03T06:07:49;101396.00;;;4.10
16956;BMP180;8594;52.052;8.354;2023-03-03T06:10:16;101397.00;;;4.20
16956;BMP180;8594;52.052;8.354;2023-03-03T06:12:42;101402.00;;;4.20
16956;BMP180;8594;52.052;8.354;2023-03-03T06:15:11;101400.00;;;4.40
16956;BMP180;8594;52.052;8.354;2023-03-03T06:17:38;101397.00;;;4.20
16956;BMP180;8594;52.052;8.354;2023-03-03T06:20:07;101403.00;;;4.10
16956;BMP180;8594;52.052;8.354;2023-03-03T06:22:35;101404.00;;;4.40
16956;BMP180;8594;52.052;8.354;2023-03-03T06:25:02;101402.00;;;4.40
16956;BMP180;8594;52.052;8.354;2023-03-03T06:27:29;101405.00;;;4.30
16956;BMP180;8594;52.052;8.354;2023-03-03T06:29:56;101399.00;;;4.50
16956;BMP180;8594;52.052;8.354;2023-03-03T06:32:23;101400.00;;;4.30
16956;BMP180;8594;52.052;8.354;2023-03-03T06:34:49;101417.00;;;4.50
16956;BMP180;8594;52.052;8.354;2023-03-03T06:37:17;101426.00;;;4.60
16956;BMP180;8594;52.052;8.354;2023-03-03T06:39:45;101417.00;;;4.70
16956;BMP180;8594;52.052;8.354;2023-03-03T06:42:11;101423.00;;;4.50
16956;BMP180;8594;52.052;8.354;2023-03-03T06:44:38;101429.00;;;4.40
16956;BMP180;8594;52.052;8.354;2023-03-03T06:47:05;101431.00;;;4.50
16956;BMP180;8594;52.052;8.354;2023-03-03T06:49:32;101434.00;;;4.70
16956;BMP180;8594;52.052;8.354;2023-03-03T06:52:10;101432.00;;;4.70
16956;BMP180;8594;52.052;8.354;2023-03-03T06:54:37;101435.00;;;4.50
16956;BMP180;8594;52.052;8.354;2023-03-03T06:57:16;101441.00;;;4.20
16956;BMP180;8594;52.052;8.354;2023-03-03T06:59:44;101441.00;;;4.60
16956;BMP180;8594;52.052;8.354;2023-03-03T07:02:15;101440.00;;;4.60
16956;BMP180;8594;52.052;8.354;2023-03-03T07:04:43;101450.00;;;4.80
16956;BMP180;8594;52.052;8.354;2023-03-03T07:07:17;101448.00;;;4.40
16956;BMP180;8594;52.052;8.354;2023-03-03T07:09:47;101449.00;;;4.50
16956;BMP180;8594;52.052;8.354;2023-03-03T07:12:19;101450.00;;;4.80
16956;BMP180;8594;52.052;8.354;2023-03-03T07:14:51;101452.00;;;4.80
16956;BMP180;8594;52.052;8.354;2023-03-03T07:17:23;101463.00;;;4.90
16956;BMP180;8594;52.052;8.354;2023-03-03T07:19:50;101474.00;;;5.10
16956;BMP180;8594;52.052;8.354;2023-03-03T07:22:20;101463.00;;;4.90
16956;BMP180;8594;52.052;8.354;2023-03-03T07:24:51;101461.00;;;4.60
16956;BMP180;8594;52.052;8.354;2023-03-03T07:27:23;101478.00;;;4.60
16956;BMP180;8594;52.052;8.354;2023-03-03T07:29:53;101464.00;;;4.30
16956;BMP180;8594;52.052;8.354;2023-03-03T07:32:27;101478.00;;;4.40
16956;BMP180;8594;52.052;8.354;2023-03-03T07:35:00;101484.00;;;4.50
16956;BMP180;8594;52.052;8.354;2023-03-03T07:37:30;101483.00;;;4.40
16956;BMP180;8594;52.052;8.354;2023-03-03T07:40:06;101481.00;;;4.40
16956;BMP180;8594;52.052;8.354;2023-03-03T07:42:52;101486.00;;;4.70
16956;BMP180;8594;52.052;8.354;2023-03-03T07:45:27;101494.00;;;4.40
16956;BMP180;8594;52.052;8.354;2023-03-03T07:48:01;101490.00;;;4.20
16956;BMP180;8594;52.052;8.354;2023-03-03T07:50:33;101496.00;;;4.40
16956;BMP180;8594;52.052;8.354;2023-03-03T07:53:00;101489.00;;;4.60
16956;BMP180;8594;52.052;8.354;2023-03-03T07:55:33;101494.00;;;4.70
16956;BMP180;8594;52.052;8.354;2023-03-03T07:58:22;101499.00;;;4.60
16956;BMP180;8594;52.052;8.354;2023-03-03T08:01:28;101500.00;;;4.80
16956;BMP180;8594;52.052;8.354;2023-03-03T08:03:57;101496.00;;;4.60
16956;BMP180;8594;52.052;8.354;2023-03-03T08:06:44;101512.00;;;5.00
16956;BMP180;8594;52.052;8.354;2023-03-03T08:09:28;101504.00;;;5.20
16956;BMP180;8594;52.052;8.354;2023-03-03T08:12:07;101498.00;;;4.90
16956;BMP180;8594;52.052;8.354;2023-03-03T08:14:38;101500.00;;;5.00
16956;BMP180;8594;52.052;8.354;2023-03-03T08:17:17;101505.00;;;4.50
16956;BMP180;8594;52.052;8.354;2023-03-03T08:19:45;101501.00;;;4.70
16956;BMP180;8594;52.052;8.354;2023-03-03T08:22:17;101501.00;;;4.90
16956;BMP180;8594;52.052;8.354;2023-03-03T08:24:44;101510.00;;;5.30
16956;BMP180;8594;52.052;8.354;2023-03-03T08:27:18;101504.00;;;5.20
16956;BMP180;8594;52.052;8.354;2023-03-03T08:29:46;101511.00;;;5.20
16956;BMP180;8594;52.052;8.354;2023-03-03T08:32:15;101512.00;;;5.10
16956;BMP180;8594;52.052;8.354;2023-03-03T08:34:41;101515.00;;;5.00
16956;BMP180;8594;52.052;8.354;2023-03-03T08:37:08;101510.00;;;5.50
16956;BMP180;8594;52.052;8.354;2023-03-03T08:39:36;101505.00;;;5.40
16956;BMP180;8594;52.052;8.354;2023-03-03T08:42:03;101506.00;;;5.20
16956;BMP180;8594;52.052;8.354;2023-03-03T08:44:30;101512.00;;;5.20
16956;BMP180;8594;52.052;8.354;2023-03-03T08:46:58;101510.00;;;5.10
16956;BMP180;8594;52.052;8.354;2023-03-03T08:49:25;101511.00;;;5.10
16956;BMP180;8594;52.052;8.354;2023-03-03T08:51:52;101507.00;;;5.60
16956;BMP180;8594;52.052;8.354;2023-03-03T08:54:20;101512.00;;;5.60
16956;BMP180;8594;52.052;8.354;2023-03-03T08:56:46;101507.00;;;5.70
16956;BMP180;8594;52.052;8.354;2023-03-03T08:59:13;101512.00;;;5.60
16956;BMP180;8594;52.052;8.354;2023-03-03T09:01:40;101515.00;;;5.30
16956;BMP180;8594;52.052;8.354;2023-03-03T09:04:10;101513.00;;;5.70
16956;BMP180;8594;52.052;8.354;2023-03-03T09:06:38;101502.00;;;5.90
16956;BMP180;8594;52.052;8.354;2023-03-03T09:09:04;101506.00;;;5.80
16956;BMP180;8594;52.052;8.354;2023-03-03T09:11:32;101505.00;;;5.70
16956;BMP180;8594;52.052;8.354;2023-03-03T09:14:09;101516.00;;;5.80
16956;BMP180;8594;52.052;8.354;2023-03-03T09:16:38;101511.00;;;5.70
16956;BMP180;8594;52.052;8.354;2023-03-03T09:19:24;101515.00;;;5.80
16956;BMP180;8594;52.052;8.354;2023-03-03T09:21:53;101528.00;;;6.00
16956;BMP180;8594;52.052;8.354;2023-03-03T09:24:27;101524.00;;;5.60
16956;BMP180;8594;52.052;8.354;2023-03-03T09:26:55;101520.00;;;5.50
16956;BMP180;8594;52.052;8.354;2023-03-03T09:29:26;101519.00;;;5.80
16956;BMP180;8594;52.052;8.354;2023-03-03T09:31:55;101527.00;;;5.60
16956;BMP180;8594;52.052;8.354;2023-03-03T09:34:37;101527.00;;;5.90
16956;BMP180;8594;52.052;8.354;2023-03-03T09:37:20;101534.00;;;6.00
16956;BMP180;8594;52.052;8.354;2023-03-03T09:39:49;101536.00;;;6.10
16956;BMP180;8594;52.052;8.354;2023-03-03T09:42:35;101529.00;;;5.40
16956;BMP180;8594;52.052;8.354;2023-03-03T09:45:41;101539.00;;;5.60
16956;BMP180;8594;52.052;8.354;2023-03-03T09:48:31;101529.00;;;5.30
16956;BMP180;8594;52.052;8.354;2023-03-03T09:54:19;101535.00;;;5.40
16956;BMP180;8594;52.052;8.354;2023-03-03T09:57:00;101541.00;;;5.60
16956;BMP180;8594;52.052;8.354;2023-03-03T09:59:46;101545.00;;;5.70
16956;BMP180;8594;52.052;8.354;2023-03-03T10:02:41;101549.00;;;6.20
16956;BMP180;8594;52.052;8.354;2023-03-03T10:05:19;101551.00;;;6.40
16956;BMP180;8594;52.052;8.354;2023-03-03T10:08:00;101550.00;;;6.80
16956;BMP180;8594;52.052;8.354;2023-03-03T10:10:50;101547.00;;;6.40
16956;BMP180;8594;52.052;8.354;2023-03-03T10:13:39;101550.00;;;6.80
16956;BMP180;8594;52.052;8.354;2023-03-03T10:16:38;101554.00;;;7.10
16956;BMP180;8594;52.052;8.354;2023-03-03T10:19:28;101547.00;;;6.10
16956;BMP180;8594;52.052;8.354;2023-03-03T10:22:16;101561.00;;;6.20
16956;BMP180;8594;52.052;8.354;2023-03-03T10:25:01;101557.00;;;6.50
16956;BMP180;8594;52.052;8.354;2023-03-03T10:27:48;101562.00;;;5.90
16956;BMP180;8594;52.052;8.354;2023-03-03T10:30:27;101557.00;;;5.40
16956;BMP180;8594;52.052;8.354;2023-03-03T10:33:06;101565.00;;;5.80
16956;BMP180;8594;52.052;8.354;2023-03-03T10:35:53;101561.00;;;6.20
16956;BMP180;8594;52.052;8.354;2023-03-03T10:38:45;101557.00;;;6.20
16956;BMP180;8594;52.052;8.354;2023-03-03T10:41:34;101562.00;;;6.10
16956;BMP180;8594;52.052;8.354;2023-03-03T10:44:30;101561.00;;;6.70
16956;BMP180;8594;52.052;8.354;2023-03-03T10:47:21;101562.00;;;6.80
16956;BMP180;8594;52.052;8.354;2023-03-03T10:50:11;101576.00;;;6.30
16956;BMP180;8594;52.052;8.354;2023-03-03T10:52:46;101564.00;;;6.30
16956;BMP180;8594;52.052;8.354;2023-03-03T10:55:28;101560.00;;;6.50
16956;BMP180;8594;52.052;8.354;2023-03-03T10:58:21;101562.00;;;7.20
16956;BMP180;8594;52.052;8.354;2023-03-03T11:00:57;101561.00;;;7.20
16956;BMP180;8594;52.052;8.354;2023-03-03T11:04:22;101576.00;;;7.30
16956;BMP180;8594;52.052;8.354;2023-03-03T11:06:59;101572.00;;;7.10
16956;BMP180;8594;52.052;8.354;2023-03-03T11:09:40;101568.00;;;6.90
16956;BMP180;8594;52.052;8.354;2023-03-03T11:12:27;101562.00;;;6.80
16956;BMP180;8594;52.052;8.354;2023-03-03T11:15:25;101562.00;;;6.40
16956;BMP180;8594;52.052;8.354;2023-03-03T11:18:24;101561.00;;;6.90
16956;BMP180;8594;52.052;8.354;2023-03-03T11:21:06;101557.00;;;7.30
16956;BMP180;8594;52.052;8.354;2023-03-03T11:23:57;101559.00;;;7.40
16956;BMP180;8594;52.052;8.354;2023-03-03T11:26:51;101548.00;;;7.20
16956;BMP180;8594;52.052;8.354;2023-03-03T11:29:35;101549.00;;;7.40
16956;BMP180;8594;52.052;8.354;2023-03-03T11:32:19;101559.00;;;7.40
16956;BMP180;8594;52.052;8.354;2023-03-03T11:35:12;101548.00;;;7.10
16956;BMP180;8594;52.052;8.354;2023-03-03T11:37:49;101549.00;;;7.30
16956;BMP180;8594;52.052;8.354;2023-03-03T11:40:25;101551.00;;;7.60
16956;BMP180;8594;52.052;8.354;2023-03-03T11:43:02;101546.00;;;7.30
16956;BMP180;8594;52.052;8.354;2023-03-03T11:45:39;101552.00;;;7.30
16956;BMP180;8594;52.052;8.354;2023-03-03T11:48:17;101536.00;;;7.20
16956;BMP180;8594;52.052;8.354;2023-03-03T11:50:54;101535.00;;;7.40
16956;BMP180;8594;52.052;8.354;2023-03-03T11:53:35;101551.00;;;7.70
16956;BMP180;8594;52.052;8.354;2023-03-03T11:56:20;101539.00;;;7.30
16956;BMP180;8594;52.052;8.354;2023-03-03T11:58:57;101545.00;;;7.50
16956;BMP180;8594;52.052;8.354;2023-03-03T12:01:33;101538.00;;;7.10
16956;BMP180;8594;52.052;8.354;2023-03-03T12:04:06;101544.00;;;7.80
16956;BMP180;8594;52.052;8.354;2023-03-03T12:06:47;101533.00;;;7.60
16956;BMP180;8594;52.052;8.354;2023-03-03T12:09:32;101523.00;;;7.40
16956;BMP180;8594;52.052;8.354;2023-03-03T12:12:06;101537.00;;;7.60
16956;BMP180;8594;52.052;8.354;2023-03-03T12:15:07;101533.00;;;7.60
16956;BMP180;8594;52.052;8.354;2023-03-03T12:18:06;101525.00;;;6.90
16956;BMP180;8594;52.052;8.354;2023-03-03T12:20:46;101525.00;;;7.10
16956;BMP180;8594;52.052;8.354;2023-03-03T12:23:37;101519.00;;;7.60
16956;BMP180;8594;52.052;8.354;2023-03-03T12:26:15;101519.00;;;7.20
16956;BMP180;8594;52.052;8.354;2023-03-03T12:28:52;101520.00;;;7.50
16956;BMP180;8594;52.052;8.354;2023-03-03T12:31:34;101516.00;;;8.10
16956;BMP180;8594;52.052;8.354;2023-03-03T12:34:13;101513.00;;;8.60
16956;BMP180;8594;52.052;8.354;2023-03-03T12:37:03;101503.00;;;8.70
16956;BMP180;8594;52.052;8.354;2023-03-03T12:39:47;101500.00;;;9.40
16956;BMP180;8594;52.052;8.354;2023-03-03T12:42:28;101501.00;;;9.60
16956;BMP180;8594;52.052;8.354;2023-03-03T12:45:08;101504.00;;;9.40
16956;BMP180;8594;52.052;8.354;2023-03-03T12:47:44;101498.00;;;9.30
16956;BMP180;8594;52.052;8.354;2023-03-03T12:50:33;101497.00;;;8.50
16956;BMP180;8594;52.052;8.354;2023-03-03T12:53:16;101497.00;;;8.90
16956;BMP180;8594;52.052;8.354;2023-03-03T12:55:52;101488.00;;;8.00
16956;BMP180;8594;52.052;8.354;2023-03-03T12:58:34;101490.00;;;8.60
16956;BMP180;8594;52.052;8.354;2023-03-03T13:01:21;101495.00;;;8.70
16956;BMP180;8594;52.052;8.354;2023-03-03T13:04:02;101491.00;;;8.60
16956;BMP180;8594;52.052;8.354;2023-03-03T13:06:35;101483.00;;;8.30
16956;BMP180;8594;52.052;8.354;2023-03-03T13:09:21;101485.00;;;8.60
16956;BMP180;8594;52.052;8.354;2023-03-03T13:12:06;101482.00;;;8.70
16956;BMP180;8594;52.052;8.354;2023-03-03T13:14:40;101489.00;;;9.30
16956;BMP180;8594;52.052;8.354;2023-03-03T13:17:21;101483.00;;;9.10
16956;BMP180;8594;52.052;8.354;2023-03-03T13:19:55;101480.00;;;8.80
16956;BMP180;8594;52.052;8.354;2023-03-03T13:22:38;101481.00;;;8.60
16956;BMP180;8594;52.052;8.354;2023-03-03T13:25:39;101488.00;;;9.00
16956;BMP180;8594;52.052;8.354;2023-03-03T13:28:20;101486.00;;;8.70
16956;BMP180;8594;52.052;8.354;2023-03-03T13:31:00;101480.00;;;8.70
16956;BMP180;8594;52.052;8.354;2023-03-03T13:33:33;101478.00;;;9.10
16956;BMP180;8594;52.052;8.354;2023-03-03T13:36:06;101472.00;;;8.50
16956;BMP180;8594;52.052;8.354;2023-03-03T13:38:39;101475.00;;;8.40
16956;BMP180;8594;52.052;8.354;2023-03-03T13:41:21;101472.00;;;8.40
16956;BMP180;8594;52.052;8.354;2023-03-03T13:43:54;101481.00;;;8.70
16956;BMP180;8594;52.052;8.354;2023-03-03T13:46:36;101472.00;;;9.10
16956;BMP180;8594;52.052;8.354;2023-03-03T13:49:33;101465.00;;;9.60
16956;BMP180;8594;52.052;8.354;2023-03-03T13:52:07;101460.00;;;8.20
16956;BMP180;8594;52.052;8.354;2023-03-03T13:54:55;101469.00;;;8.80
16956;BMP180;8594;52.052;8.354;2023-03-03T13:57:59;101471.00;;;9.00
16956;BMP180;8594;52.052;8.354;2023-03-03T14:00:38;101459.00;;;9.50
16956;BMP180;8594;52.052;8.354;2023-03-03T14:03:33;101462.00;;;10.30
16956;BMP180;8594;52.052;8.354;2023-03-03T14:06:04;101457.00;;;7.80
16956;BMP180;8594;52.052;8.354;2023-03-03T14:09:07;101453.00;;;9.50
16956;BMP180;8594;52.052;8.354;2023-03-03T14:11:45;101460.00;;;9.50
16956;BMP180;8594;52.052;8.354;2023-03-03T14:14:35;101460.00;;;9.50
16956;BMP180;8594;52.052;8.354;2023-03-03T14:17:16;101459.00;;;9.50
16956;BMP180;8594;52.052;8.354;2023-03-03T14:19:48;101457.00;;;8.80
16956;BMP180;8594;52.052;8.354;2023-03-03T14:22:21;101458.00;;;8.80
16956;BMP180;8594;52.052;8.354;2023-03-03T14:25:02;101447.00;;;9.40
16956;BMP180;8594;52.052;8.354;2023-03-03T14:27:37;101456.00;;;9.00
16956;BMP180;8594;52.052;8.354;2023-03-03T14:30:40;101453.00;;;9.50
16956;BMP180;8594;52.052;8.354;2023-03-03T14:33:28;101453.00;;;8.30
16956;BMP180;8594;52.052;8.354;2023-03-03T14:36:18;101443.00;;;9.10
16956;BMP180;8594;52.052;8.354;2023-03-03T14:38:50;101443.00;;;9.10
16956;BMP180;8594;52.052;8.354;2023-03-03T14:41:22;101449.00;;;8.80
16956;BMP180;8594;52.052;8.354;2023-03-03T14:44:01;101444.00;;;9.40
16956;BMP180;8594;52.052;8.354;2023-03-03T14:47:09;101433.00;;;8.30
16956;BMP180;8594;52.052;8.354;2023-03-03T14:49:38;101432.00;;;9.00
16956;BMP180;8594;52.052;8.354;2023-03-03T14:52:20;101428.00;;;9.00
16956;BMP180;8594;52.052;8.354;2023-03-03T14:54:49;101424.00;;;8.30
16956;BMP180;8594;52.052;8.354;2023-03-03T14:57:20;101426.00;;;9.10
16956;BMP180;8594;52.052;8.354;2023-03-03T15:00:00;101415.00;;;8.00
16956;BMP180;8594;52.052;8.354;2023-03-03T15:02:37;101424.00;;;8.80
16956;BMP180;8594;52.052;8.354;2023-03-03T15:05:24;101418.00;;;8.70